createdAt,value
2023-05-09T00:01:52.746Z,100920.47
2023-05-09T00:04:21.101Z,100909.34
2023-05-09T00:06:49.041Z,100877.09
2023-05-09T00:09:17.626Z,100910.31
2023-05-09T00:11:45.363Z,100913.06
2023-05-09T00:14:14.043Z,100886.03
2023-05-09T00:16:41.882Z,100874.38
2023-05-09T00:19:10.076Z,100893.00
2023-05-09T00:21:38.054Z,100885.09
2023-05-09T00:24:06.458Z,100903.84
2023-05-09T00:26:34.306Z,100896.56
2023-05-09T00:29:02.154Z,100902.22
2023-05-09T00:31:29.943Z,100879.72
2023-05-09T00:33:57.737Z,100904.19
2023-05-09T00:36:25.995Z,100889.13
2023-05-09T00:38:53.869Z,100922.09
2023-05-09T00:41:24.596Z,100849.06
2023-05-09T00:43:52.441Z,100886.22
2023-05-09T00:46:20.299Z,100901.13
2023-05-09T00:48:48.433Z,100886.34
2023-05-09T00:51:17.239Z,100902.03
2023-05-09T00:53:47.972Z,100911.75
2023-05-09T00:56:16.066Z,100905.75
2023-05-09T00:58:44.361Z,100813.44
2023-05-09T01:01:12.365Z,100911.75
2023-05-09T01:03:41.856Z,100907.09
2023-05-09T01:06:12.951Z,100902.22
2023-05-09T01:08:51.435Z,100890.44
2023-05-09T01:11:44.812Z,100845.91
2023-05-09T01:14:39.931Z,100887.19
2023-05-09T01:17:18.538Z,100888.34
2023-05-09T01:20:05.817Z,100884.78
2023-05-09T01:22:37.348Z,100876.88
2023-05-09T01:25:14.154Z,100872.19
2023-05-09T01:27:53.808Z,100868.34
2023-05-09T01:30:22.408Z,100838.38
2023-05-09T01:32:52.319Z,100859.41
2023-05-09T01:35:26.055Z,100863.78
2023-05-09T01:37:55.568Z,100863.66
2023-05-09T01:40:26.751Z,100848.59
2023-05-09T01:43:04.222Z,100842.44
2023-05-09T01:45:33.348Z,100836.16
2023-05-09T01:48:02.302Z,100828.41
2023-05-09T01:50:31.471Z,100821.56
2023-05-09T01:53:01.618Z,100857.00
2023-05-09T01:55:32.898Z,100866.06
2023-05-09T01:58:03.259Z,100811.09
2023-05-09T02:00:33.665Z,100818.66
2023-05-09T02:03:04.202Z,100832.16
2023-05-09T02:05:33.853Z,100828.59
2023-05-09T02:08:01.647Z,100847.84
2023-05-09T02:10:30.050Z,100823.41
2023-05-09T02:12:58.752Z,100820.28
2023-05-09T02:15:26.875Z,100842.38
2023-05-09T02:17:54.699Z,100844.78
2023-05-09T02:20:22.721Z,100797.00
2023-05-09T02:22:51.283Z,100846.03
2023-05-09T02:25:20.216Z,100847.84
2023-05-09T02:27:48.045Z,100846.84
2023-05-09T02:30:23.566Z,100832.81
2023-05-09T02:32:57.162Z,100826.97
2023-05-09T02:35:27.564Z,100830.50
2023-05-09T02:37:57.117Z,100802.97
2023-05-09T02:40:30.448Z,100842.00
2023-05-09T02:42:58.259Z,100842.13
2023-05-09T02:45:26.288Z,100816.34
2023-05-09T02:47:54.241Z,100808.78
2023-05-09T02:50:24.118Z,100814.47
2023-05-09T02:52:52.237Z,100838.28
2023-05-09T02:55:20.028Z,100804.91
2023-05-09T02:57:47.911Z,100809.09
2023-05-09T03:00:18.198Z,100836.50
2023-05-09T03:02:46.153Z,100844.41
2023-05-09T03:05:18.065Z,100824.94
2023-05-09T03:07:46.162Z,100827.19
2023-05-09T03:10:14.829Z,100850.72
2023-05-09T03:12:43.959Z,100805.72
2023-05-09T03:15:13.242Z,100845.53
2023-05-09T03:17:42.424Z,100826.47
2023-05-09T03:20:10.754Z,100829.91
2023-05-09T03:22:38.685Z,100807.53
2023-05-09T03:25:09.773Z,100790.41
2023-05-09T03:27:37.618Z,100746.47
2023-05-09T03:30:09.032Z,100780.94
2023-05-09T03:32:37.371Z,100763.50
2023-05-09T03:35:05.392Z,100721.44
2023-05-09T03:37:33.722Z,100759.28
2023-05-09T03:40:01.676Z,100791.66
2023-05-09T03:42:32.765Z,100773.84
2023-05-09T03:45:02.938Z,100775.78
2023-05-09T03:47:31.799Z,100804.75
2023-05-09T03:49:59.699Z,100809.09
2023-05-09T03:52:27.532Z,100793.50
2023-05-09T03:54:56.034Z,100751.50
2023-05-09T03:57:23.862Z,100808.59
2023-05-09T03:59:53.966Z,100785.94
2023-05-09T04:02:23.338Z,100779.31
2023-05-09T04:04:52.964Z,100763.44
2023-05-09T04:07:22.736Z,100795.53
2023-05-09T04:09:50.814Z,100759.41
2023-05-09T04:12:18.645Z,100728.72
2023-05-09T04:14:48.930Z,100780.28
2023-05-09T04:17:18.331Z,100774.44
2023-05-09T04:19:46.569Z,100749.84
2023-05-09T04:22:14.481Z,100792.38
2023-05-09T04:24:42.692Z,100752.81
2023-05-09T04:27:10.480Z,100792.28
2023-05-09T04:29:39.085Z,100785.94
2023-05-09T04:32:07.418Z,100800.53
2023-05-09T04:34:36.096Z,100803.75
2023-05-09T04:37:10.155Z,100791.25
2023-05-09T04:39:38.287Z,100784.81
2023-05-09T04:42:14.694Z,100764.50
2023-05-09T04:44:42.556Z,100792.00
2023-05-09T04:47:10.625Z,100773.91
2023-05-09T04:49:38.777Z,100749.47
2023-05-09T04:52:07.197Z,100813.19
2023-05-09T04:54:35.119Z,100787.28
2023-05-09T04:57:16.505Z,100817.47
2023-05-09T04:59:47.281Z,100817.69
2023-05-09T05:02:16.367Z,100811.41
2023-05-09T05:04:44.441Z,100781.66
2023-05-09T05:07:12.566Z,100799.44
2023-05-09T05:09:40.458Z,100779.72
2023-05-09T05:12:09.827Z,100746.03
2023-05-09T05:14:38.981Z,100796.38
2023-05-09T05:17:09.388Z,100774.72
2023-05-09T05:19:37.428Z,100802.22
2023-05-09T05:22:07.312Z,100790.66
2023-05-09T05:24:38.009Z,100790.84
2023-05-09T05:27:05.803Z,100755.53
2023-05-09T05:29:33.657Z,100775.13
2023-05-09T05:32:01.770Z,100781.09
2023-05-09T05:34:29.535Z,100751.56
2023-05-09T05:36:57.433Z,100791.53
2023-05-09T05:39:25.454Z,100757.34
2023-05-09T05:41:54.185Z,100791.16
2023-05-09T05:44:22.150Z,100758.47
2023-05-09T05:46:50.481Z,100768.69
2023-05-09T05:49:18.590Z,100746.34
2023-05-09T05:51:46.728Z,100761.56
2023-05-09T05:54:14.749Z,100759.00
2023-05-09T05:56:42.943Z,100740.09
2023-05-09T05:59:13.330Z,100753.53
2023-05-09T06:01:41.841Z,100778.94
2023-05-09T06:04:10.255Z,100755.16
2023-05-09T06:06:38.769Z,100747.03
2023-05-09T06:09:06.516Z,100733.50
2023-05-09T06:11:34.310Z,100714.13
2023-05-09T06:14:02.178Z,100762.34
2023-05-09T06:16:30.408Z,100766.72
2023-05-09T06:18:58.288Z,100720.28
2023-05-09T06:21:27.017Z,100759.00
2023-05-09T06:24:05.866Z,100753.53
2023-05-09T06:26:36.881Z,100712.44
2023-05-09T06:29:06.713Z,100715.50
2023-05-09T06:31:39.129Z,100742.19
2023-05-09T06:34:07.759Z,100745.28
2023-05-09T06:36:35.882Z,100699.00
2023-05-09T06:39:03.878Z,100742.56
2023-05-09T06:41:31.808Z,100719.59
2023-05-09T06:43:59.840Z,100741.06
2023-05-09T06:46:27.645Z,100680.59
2023-05-09T06:48:55.539Z,100673.00
2023-05-09T06:51:23.417Z,100734.13
2023-05-09T06:53:51.473Z,100739.44
2023-05-09T06:56:26.577Z,100720.41
2023-05-09T06:58:54.518Z,100690.16
2023-05-09T07:01:22.563Z,100724.63
2023-05-09T07:03:50.344Z,100712.66
2023-05-09T07:06:23.525Z,100688.06
2023-05-09T07:08:51.426Z,100708.72
2023-05-09T07:11:19.517Z,100750.78
2023-05-09T07:13:50.213Z,100743.50
2023-05-09T07:16:23.237Z,100755.63
2023-05-09T07:18:53.702Z,100751.25
2023-05-09T07:21:23.281Z,100689.09
2023-05-09T07:23:51.258Z,100766.09
2023-05-09T07:26:21.704Z,100774.00
2023-05-09T07:28:52.042Z,100742.75
2023-05-09T07:31:22.877Z,100716.75
2023-05-09T07:33:50.813Z,100699.63
2023-05-09T07:36:18.839Z,100738.97
2023-05-09T07:38:48.222Z,100722.66
2023-05-09T07:41:16.653Z,100730.59
2023-05-09T07:43:44.743Z,100721.19
2023-05-09T07:46:12.794Z,100725.91
2023-05-09T07:48:40.714Z,100669.81
2023-05-09T07:51:08.910Z,100668.69
2023-05-09T07:53:37.054Z,100711.25
2023-05-09T07:56:08.280Z,100746.25
2023-05-09T07:58:36.134Z,100681.56
2023-05-09T08:01:08.568Z,100717.16
2023-05-09T08:03:36.534Z,100747.41
2023-05-09T08:06:04.401Z,100732.88
2023-05-09T08:08:32.344Z,100734.84
2023-05-09T08:11:01.072Z,100743.56
2023-05-09T08:13:28.995Z,100733.38
2023-05-09T08:15:57.437Z,100697.69
2023-05-09T08:18:25.648Z,100672.69
2023-05-09T08:20:53.608Z,100686.91
2023-05-09T08:23:21.727Z,100649.53
2023-05-09T08:25:53.404Z,100702.41
2023-05-09T08:28:24.434Z,100697.09
2023-05-09T08:30:52.659Z,100668.31
2023-05-09T08:33:20.594Z,100694.66
2023-05-09T08:35:55.184Z,100682.25
2023-05-09T08:38:24.527Z,100739.91
2023-05-09T08:40:54.314Z,100694.38
2023-05-09T08:43:24.101Z,100690.81
2023-05-09T08:45:55.226Z,100710.69
2023-05-09T08:48:28.270Z,100659.31
2023-05-09T08:50:59.703Z,100675.97
2023-05-09T08:53:28.187Z,100691.66
2023-05-09T08:55:56.679Z,100597.59
2023-05-09T08:58:24.667Z,100569.34
2023-05-09T09:00:53.764Z,100656.28
2023-05-09T09:03:21.899Z,100690.69
2023-05-09T09:05:51.881Z,100703.31
2023-05-09T09:08:20.828Z,100690.56
2023-05-09T09:10:49.212Z,100704.94
2023-05-09T09:13:18.210Z,100662.63
2023-05-09T09:15:47.401Z,100677.47
2023-05-09T09:18:24.019Z,100631.13
2023-05-09T09:20:57.816Z,100698.00
2023-05-09T09:23:27.462Z,100696.84
2023-05-09T09:26:00.485Z,100649.53
2023-05-09T09:28:28.641Z,100702.00
2023-05-09T09:30:56.935Z,100697.03
2023-05-09T09:33:26.845Z,100710.25
2023-05-09T09:35:56.301Z,100668.13
2023-05-09T09:38:25.242Z,100676.34
2023-05-09T09:40:55.057Z,100693.78
2023-05-09T09:43:32.759Z,100689.09
2023-05-09T09:46:04.741Z,100683.00
2023-05-09T09:48:36.668Z,100682.22
2023-05-09T09:51:11.923Z,100674.97
2023-05-09T09:53:44.152Z,100637.16
2023-05-09T09:56:12.297Z,100652.66
2023-05-09T09:58:40.241Z,100658.00
2023-05-09T10:01:10.052Z,100639.25
2023-05-09T10:03:39.323Z,100657.69
2023-05-09T10:06:12.208Z,100602.94
2023-05-09T10:08:41.047Z,100644.13
2023-05-09T10:11:10.414Z,100438.03
2023-05-09T10:13:38.907Z,100530.47
2023-05-09T10:16:09.165Z,100581.78
2023-05-09T10:18:40.000Z,100577.75
2023-05-09T10:21:12.330Z,100636.19
2023-05-09T10:23:47.162Z,100642.34
2023-05-09T10:26:20.090Z,100670.59
2023-05-09T10:28:50.008Z,100617.97
2023-05-09T10:31:39.425Z,100649.63
2023-05-09T10:34:10.742Z,100661.22
2023-05-09T10:36:38.595Z,100629.91
2023-05-09T10:39:06.865Z,100571.81
2023-05-09T10:41:37.312Z,100651.56
2023-05-09T10:44:06.562Z,100522.44
2023-05-09T10:46:36.188Z,100587.94
2023-05-09T10:49:04.269Z,100498.53
2023-05-09T10:51:33.193Z,100467.88
2023-05-09T10:54:01.738Z,100524.22
2023-05-09T10:56:35.978Z,100467.88
2023-05-09T10:59:04.285Z,100464.47
2023-05-09T11:01:37.724Z,100561.97
2023-05-09T11:04:11.688Z,100588.47
2023-05-09T11:06:51.962Z,100628.81
2023-05-09T11:09:25.351Z,100625.25
2023-05-09T11:11:58.000Z,100501.78
2023-05-09T11:14:53.911Z,100621.69
2023-05-09T11:17:22.242Z,100616.50
2023-05-09T11:19:50.295Z,100617.31
2023-05-09T11:22:22.047Z,100566.78
2023-05-09T11:25:00.411Z,100560.69
2023-05-09T11:27:29.394Z,100562.75
2023-05-09T11:29:59.560Z,100577.78
2023-05-09T11:32:53.845Z,100579.38
2023-05-09T11:35:23.386Z,100606.34
2023-05-09T11:38:07.058Z,100567.59
2023-05-09T11:40:35.576Z,100593.16
2023-05-09T11:43:03.781Z,100552.13
2023-05-09T11:45:33.478Z,100551.47
2023-05-09T11:48:02.418Z,100595.22
2023-05-09T11:50:30.479Z,100485.69
2023-05-09T11:52:58.809Z,100387.63
2023-05-09T11:55:30.330Z,100573.13
2023-05-09T11:57:59.188Z,100573.56
2023-05-09T12:00:27.130Z,100562.94
2023-05-09T12:02:55.144Z,100489.69
2023-05-09T12:05:23.916Z,100560.00
2023-05-09T12:07:52.882Z,100523.88
2023-05-09T12:10:23.157Z,100420.97
2023-05-09T12:12:53.179Z,100385.69
2023-05-09T12:15:22.208Z,100534.88
2023-05-09T12:18:04.897Z,100322.38
2023-05-09T12:20:48.692Z,100303.38
2023-05-09T12:23:17.043Z,100537.13
2023-05-09T12:25:57.906Z,100449.56
2023-05-09T12:28:26.748Z,100541.81
2023-05-09T12:30:55.292Z,100423.13
2023-05-09T12:33:23.926Z,100461.81
2023-05-09T12:36:12.637Z,100546.16
2023-05-09T12:38:40.921Z,100362.19
2023-05-09T12:41:18.817Z,100460.00
2023-05-09T12:43:57.999Z,100427.31
2023-05-09T12:46:26.040Z,100377.66
2023-05-09T12:48:54.506Z,100544.69
2023-05-09T12:51:23.008Z,100538.88
2023-05-09T12:53:51.443Z,100524.84
2023-05-09T12:56:23.559Z,100515.97
2023-05-09T12:58:53.956Z,100527.25
2023-05-09T13:01:27.744Z,100508.88
2023-05-09T13:04:04.206Z,100518.03
2023-05-09T13:06:36.086Z,100503.38
2023-05-09T13:09:06.517Z,100500.00
2023-05-09T13:11:35.548Z,100473.53
2023-05-09T13:14:04.349Z,100499.34
2023-05-09T13:16:32.508Z,100524.00
2023-05-09T13:19:01.720Z,100530.31
2023-05-09T13:21:29.984Z,100514.47
2023-05-09T13:23:57.834Z,100501.56
2023-05-09T13:26:27.464Z,100503.81
2023-05-09T13:28:56.210Z,100493.84
2023-05-09T13:31:24.511Z,100525.75
2023-05-09T13:33:52.589Z,100469.47
2023-05-09T13:36:23.497Z,100500.59
2023-05-09T13:38:51.335Z,100505.91
2023-05-09T13:41:24.098Z,100509.44
2023-05-09T13:43:51.933Z,100518.50
2023-05-09T13:46:19.736Z,100454.81
2023-05-09T13:48:47.964Z,100464.97
2023-05-09T13:51:15.735Z,100495.38
2023-05-09T13:53:43.569Z,100491.97
2023-05-09T13:56:11.871Z,100448.63
2023-05-09T13:58:39.665Z,100452.53
2023-05-09T14:01:07.842Z,100488.00
2023-05-09T14:03:36.011Z,100437.38
2023-05-09T14:06:04.502Z,100462.16
2023-05-09T14:08:32.482Z,100471.53
2023-05-09T14:11:00.375Z,100495.84
2023-05-09T14:13:28.566Z,100458.97
2023-05-09T14:15:56.324Z,100481.19
2023-05-09T14:18:24.073Z,100436.38
2023-05-09T14:20:51.850Z,100461.00
2023-05-09T14:23:19.575Z,100462.94
2023-05-09T14:25:47.258Z,100455.19
2023-05-09T14:28:15.045Z,100405.59
2023-05-09T14:30:42.766Z,100408.63
2023-05-09T14:33:10.733Z,100416.19
2023-05-09T14:35:41.071Z,100439.44
2023-05-09T14:38:09.428Z,100424.94
2023-05-09T14:40:37.733Z,100455.69
2023-05-09T14:43:06.173Z,100455.53
2023-05-09T14:45:34.035Z,100442.31
2023-05-09T14:48:05.890Z,100439.44
2023-05-09T14:50:33.880Z,100484.06
2023-05-09T14:53:02.191Z,100477.31
2023-05-09T14:55:31.381Z,100479.75
2023-05-09T14:57:59.468Z,100466.97
2023-05-09T15:00:28.783Z,100451.97
2023-05-09T15:02:57.300Z,100420.44
2023-05-09T15:05:25.366Z,100454.56
2023-05-09T15:07:53.117Z,100420.41
2023-05-09T15:10:21.147Z,100452.81
2023-05-09T15:12:51.766Z,100466.88
2023-05-09T15:15:21.314Z,100458.97
2023-05-09T15:17:49.418Z,100468.00
2023-05-09T15:20:18.403Z,100412.56
2023-05-09T15:22:50.438Z,100451.38
2023-05-09T15:25:18.614Z,100458.34
2023-05-09T15:27:46.554Z,100450.56
2023-05-09T15:30:14.733Z,100449.94
2023-05-09T15:32:42.847Z,100433.69
2023-05-09T15:35:10.652Z,100465.44
2023-05-09T15:37:38.732Z,100475.28
2023-05-09T15:40:08.107Z,100460.63
2023-05-09T15:42:38.820Z,100483.03
2023-05-09T15:45:07.299Z,100480.44
2023-05-09T15:47:35.092Z,100455.16
2023-05-09T15:50:03.354Z,100457.06
2023-05-09T15:52:31.534Z,100481.75
2023-05-09T15:54:59.851Z,100469.50
2023-05-09T15:57:28.132Z,100473.22
2023-05-09T15:59:56.238Z,100465.00
2023-05-09T16:02:24.318Z,100485.13
2023-05-09T16:04:52.312Z,100467.56
2023-05-09T16:07:20.938Z,100469.84
2023-05-09T16:09:48.887Z,100484.19
2023-05-09T16:12:16.674Z,100490.19
2023-05-09T16:14:44.395Z,100507.91
2023-05-09T16:17:12.794Z,100503.22
2023-05-09T16:19:40.974Z,100507.91
2023-05-09T16:22:08.937Z,100507.25
2023-05-09T16:24:37.693Z,100521.00
2023-05-09T16:27:05.468Z,100500.69
2023-05-09T16:29:33.322Z,100487.09
2023-05-09T16:32:01.515Z,100512.44
2023-05-09T16:34:29.625Z,100500.69
2023-05-09T16:36:57.528Z,100512.13
2023-05-09T16:39:28.054Z,100523.56
2023-05-09T16:41:56.468Z,100477.75
2023-05-09T16:44:26.046Z,100523.56
2023-05-09T16:46:53.868Z,100499.66
2023-05-09T16:49:21.624Z,100487.25
2023-05-09T16:51:49.575Z,100517.72
2023-05-09T16:54:17.412Z,100504.00
2023-05-09T16:56:45.142Z,100522.72
2023-05-09T16:59:13.406Z,100444.03
2023-05-09T17:01:42.728Z,100448.88
2023-05-09T17:04:10.456Z,100492.44
2023-05-09T17:06:38.376Z,100543.84
2023-05-09T17:09:06.444Z,100543.50
2023-05-09T17:11:34.264Z,100509.50
2023-05-09T17:14:03.579Z,100567.09
2023-05-09T17:16:31.502Z,100548.41
2023-05-09T17:18:59.397Z,100533.56
2023-05-09T17:21:27.243Z,100526.94
2023-05-09T17:23:56.925Z,100540.00
2023-05-09T17:26:26.050Z,100570.16
2023-05-09T17:28:53.882Z,100598.56
2023-05-09T17:31:22.045Z,100610.22
2023-05-09T17:33:50.082Z,100589.72
2023-05-09T17:36:18.003Z,100613.28
2023-05-09T17:38:46.466Z,100580.53
2023-05-09T17:41:14.465Z,100566.97
2023-05-09T17:43:43.183Z,100612.81
2023-05-09T17:46:11.190Z,100583.44
2023-05-09T17:48:39.039Z,100571.03
2023-05-09T17:51:07.254Z,100615.22
2023-05-09T17:53:35.116Z,100615.22
2023-05-09T17:56:05.342Z,100599.25
2023-05-09T17:58:33.101Z,100560.69
2023-05-09T18:01:01.279Z,100592.16
2023-05-09T18:03:29.172Z,100613.13
2023-05-09T18:05:57.330Z,100572.31
2023-05-09T18:08:25.092Z,100550.84
2023-05-09T18:10:54.920Z,100563.25
2023-05-09T18:13:23.276Z,100604.56
2023-05-09T18:15:51.266Z,100560.84
2023-05-09T18:18:19.175Z,100623.63
2023-05-09T18:20:47.632Z,100634.28
2023-05-09T18:23:16.186Z,100654.44
2023-05-09T18:25:44.031Z,100617.19
2023-05-09T18:28:11.868Z,100677.41
2023-05-09T18:30:39.766Z,100624.13
2023-05-09T18:33:08.482Z,100687.09
2023-05-09T18:35:36.411Z,100700.16
2023-05-09T18:38:04.362Z,100704.03
2023-05-09T18:40:32.976Z,100655.75
2023-05-09T18:43:00.834Z,100659.94
2023-05-09T18:45:29.310Z,100696.44
2023-05-09T18:47:57.248Z,100662.22
2023-05-09T18:50:25.187Z,100630.69
2023-05-09T18:52:53.125Z,100667.84
2023-05-09T18:55:22.197Z,100700.47
2023-05-09T18:57:50.027Z,100672.84
2023-05-09T19:00:18.284Z,100717.09
2023-05-09T19:02:46.169Z,100717.56
2023-05-09T19:05:13.816Z,100720.19
2023-05-09T19:07:41.671Z,100694.13
2023-05-09T19:10:09.933Z,100702.91
2023-05-09T19:12:38.024Z,100662.81
2023-05-09T19:15:06.353Z,100671.22
2023-05-09T19:17:34.372Z,100660.56
2023-05-09T19:20:02.715Z,100686.59
2023-05-09T19:22:31.622Z,100563.47
2023-05-09T19:24:59.381Z,100700.78
2023-05-09T19:27:27.344Z,100710.97
2023-05-09T19:29:55.115Z,100659.44
2023-05-09T19:32:23.068Z,100679.91
2023-05-09T19:34:51.001Z,100694.16
2023-05-09T19:37:18.772Z,100705.00
2023-05-09T19:39:46.681Z,100654.69
2023-05-09T19:42:15.134Z,100708.88
2023-05-09T19:44:43.052Z,100714.78
2023-05-09T19:47:11.447Z,100709.09
2023-05-09T19:49:40.497Z,100677.94
2023-05-09T19:52:08.192Z,100677.94
2023-05-09T19:54:35.954Z,100720.59
2023-05-09T19:57:06.603Z,100708.28
2023-05-09T19:59:34.680Z,100707.00
2023-05-09T20:02:07.617Z,100716.38
2023-05-09T20:04:36.841Z,100750.78
2023-05-09T20:07:07.433Z,100764.16
2023-05-09T20:09:35.720Z,100737.44
2023-05-09T20:12:03.997Z,100558.59
2023-05-09T20:14:32.292Z,100597.00
2023-05-09T20:17:00.148Z,100775.13
2023-05-09T20:19:28.260Z,100768.66
2023-05-09T20:21:56.357Z,100748.63
2023-05-09T20:24:24.357Z,100720.31
2023-05-09T20:26:53.843Z,100758.78
2023-05-09T20:29:21.786Z,100765.91
2023-05-09T20:31:49.850Z,100768.97
2023-05-09T20:34:18.210Z,100778.81
2023-05-09T20:36:48.797Z,100782.09
2023-05-09T20:39:17.961Z,100573.41
2023-05-09T20:41:47.228Z,100579.44
2023-05-09T20:44:16.312Z,100621.31
2023-05-09T20:46:45.330Z,100680.66
2023-05-09T20:49:13.591Z,100735.78
2023-05-09T20:51:42.773Z,100625.19
2023-05-09T20:54:12.856Z,100733.16
2023-05-09T20:56:40.908Z,100564.44
2023-05-09T20:59:08.979Z,100646.84
2023-05-09T21:01:40.038Z,100795.63
2023-05-09T21:04:08.571Z,100636.50
2023-05-09T21:06:37.588Z,100735.13
2023-05-09T21:09:06.752Z,100789.13
2023-05-09T21:11:40.230Z,100727.22
2023-05-09T21:14:09.976Z,100632.53
2023-05-09T21:16:39.339Z,100760.19
2023-05-09T21:19:09.029Z,100758.59
2023-05-09T21:21:36.989Z,100684.78
2023-05-09T21:24:09.510Z,100822.59
2023-05-09T21:26:37.553Z,100803.03
2023-05-09T21:29:05.687Z,100772.13
2023-05-09T21:31:34.654Z,100761.81
2023-05-09T21:34:02.701Z,100792.72
2023-05-09T21:36:31.599Z,100702.59
2023-05-09T21:38:59.521Z,100782.47
2023-05-09T21:41:28.096Z,100786.19
2023-05-09T21:43:56.241Z,100749.16
2023-05-09T21:46:25.193Z,100814.47
2023-05-09T21:48:53.583Z,100825.47
2023-05-09T21:51:22.020Z,100797.13
2023-05-09T21:53:49.879Z,100818.78
2023-05-09T21:56:19.286Z,100757.84
2023-05-09T21:58:47.182Z,100771.09
2023-05-09T22:01:18.098Z,100770.44
2023-05-09T22:03:46.318Z,100808.59
2023-05-09T22:06:14.134Z,100796.44
2023-05-09T22:08:42.013Z,100817.31
2023-05-09T22:11:10.941Z,100802.75
2023-05-09T22:13:39.939Z,100735.75
2023-05-09T22:16:08.010Z,100785.00
2023-05-09T22:18:35.929Z,100792.75
2023-05-09T22:21:04.191Z,100790.47
2023-05-09T22:23:34.613Z,100717.50
2023-05-09T22:26:02.491Z,100822.34
2023-05-09T22:28:30.743Z,100768.50
2023-05-09T22:30:58.643Z,100796.97
2023-05-09T22:33:29.374Z,100748.28
2023-05-09T22:35:58.907Z,100714.31
2023-05-09T22:38:26.883Z,100595.22
2023-05-09T22:40:55.050Z,100770.63
2023-05-09T22:43:25.387Z,100634.59
2023-05-09T22:45:56.828Z,100658.84
2023-05-09T22:48:25.112Z,100611.81
2023-05-09T22:50:55.799Z,100600.94
2023-05-09T22:53:24.230Z,100795.97
2023-05-09T22:55:55.140Z,100804.44
2023-05-09T22:58:23.365Z,100667.88
2023-05-09T23:00:51.499Z,100678.25
2023-05-09T23:03:23.393Z,100580.44
2023-05-09T23:05:52.702Z,100614.63
2023-05-09T23:08:23.734Z,100655.13
2023-05-09T23:10:54.292Z,100576.50
2023-05-09T23:13:23.870Z,100643.22
2023-05-09T23:15:52.446Z,100811.44
2023-05-09T23:18:23.163Z,100742.53
2023-05-09T23:20:51.258Z,100784.72
2023-05-09T23:23:19.349Z,100592.13
2023-05-09T23:25:47.513Z,100658.50
2023-05-09T23:28:17.007Z,100591.63
2023-05-09T23:30:45.324Z,100638.16
2023-05-09T23:33:16.621Z,100570.28
2023-05-09T23:35:51.098Z,100678.00
2023-05-09T23:38:20.104Z,100776.81
2023-05-09T23:40:48.433Z,100636.06
2023-05-09T23:43:21.067Z,100594.03
2023-05-09T23:45:49.794Z,100565.81
2023-05-09T23:48:18.103Z,100573.22
2023-05-09T23:50:46.436Z,100712.31
2023-05-09T23:53:15.269Z,100679.94
2023-05-09T23:55:43.771Z,100619.00
2023-05-09T23:58:12.890Z,100678.78
